sensor_id;sensor_type;location;lat;lon;timestamp;P1;durP1;ratioP1;P2;durP2;ratioP2
65855;SDS011;52631;42.208;24.656;2023-03-01T00:01:09;0.32;;;0.32;;
65855;SDS011;52631;42.208;24.656;2023-03-01T00:03:36;0.47;;;0.47;;
65855;SDS011;52631;42.208;24.656;2023-03-01T00:06:02;0.40;;;0.40;;
65855;SDS011;52631;42.208;24.656;2023-03-01T00:08:29;0.30;;;0.30;;
65855;SDS011;52631;42.208;24.656;2023-03-01T00:11:10;0.30;;;0.30;;
65855;SDS011;52631;42.208;24.656;2023-03-01T00:13:43;0.30;;;0.30;;
65855;SDS011;52631;42.208;24.656;2023-03-01T00:16:11;0.82;;;0.63;;
65855;SDS011;52631;42.208;24.656;2023-03-01T00:18:38;1.75;;;1.35;;
65855;SDS011;52631;42.208;24.656;2023-03-01T00:21:04;0.30;;;0.30;;
65855;SDS011;52631;42.208;24.656;2023-03-01T00:23:30;0.40;;;0.40;;
65855;SDS011;52631;42.208;24.656;2023-03-01T00:25:57;0.38;;;0.38;;
65855;SDS011;52631;42.208;24.656;2023-03-01T00:28:22;0.68;;;0.68;;
65855;SDS011;52631;42.208;24.656;2023-03-01T00:30:48;0.30;;;0.30;;
65855;SDS011;52631;42.208;24.656;2023-03-01T00:33:14;2.17;;;1.05;;
65855;SDS011;52631;42.208;24.656;2023-03-01T00:35:41;0.30;;;0.30;;
65855;SDS011;52631;42.208;24.656;2023-03-01T00:38:07;0.45;;;0.45;;
65855;SDS011;52631;42.208;24.656;2023-03-01T00:40:36;1.40;;;1.30;;
65855;SDS011;52631;42.208;24.656;2023-03-01T00:43:01;0.30;;;0.30;;
65855;SDS011;52631;42.208;24.656;2023-03-01T00:45:28;0.40;;;0.40;;
65855;SDS011;52631;42.208;24.656;2023-03-01T00:47:54;0.50;;;0.50;;
65855;SDS011;52631;42.208;24.656;2023-03-01T00:52:55;0.40;;;0.40;;
65855;SDS011;52631;42.208;24.656;2023-03-01T00:55:21;0.75;;;0.70;;
65855;SDS011;52631;42.208;24.656;2023-03-01T00:57:46;0.30;;;0.30;;
65855;SDS011;52631;42.208;24.656;2023-03-01T01:00:12;0.30;;;0.30;;
65855;SDS011;52631;42.208;24.656;2023-03-01T01:02:38;0.30;;;0.30;;
65855;SDS011;52631;42.208;24.656;2023-03-01T01:05:03;0.30;;;0.30;;
65855;SDS011;52631;42.208;24.656;2023-03-01T01:07:29;1.40;;;1.15;;
65855;SDS011;52631;42.208;24.656;2023-03-01T01:09:55;0.30;;;0.30;;
65855;SDS011;52631;42.208;24.656;2023-03-01T01:12:21;0.43;;;0.43;;
65855;SDS011;52631;42.208;24.656;2023-03-01T01:14:46;0.30;;;0.30;;
65855;SDS011;52631;42.208;24.656;2023-03-01T01:17:11;0.30;;;0.30;;
65855;SDS011;52631;42.208;24.656;2023-03-01T01:19:37;0.45;;;0.45;;
65855;SDS011;52631;42.208;24.656;2023-03-01T01:22:02;0.30;;;0.30;;
65855;SDS011;52631;42.208;24.656;2023-03-01T01:24:28;0.30;;;0.30;;
65855;SDS011;52631;42.208;24.656;2023-03-01T01:26:54;0.30;;;0.30;;
65855;SDS011;52631;42.208;24.656;2023-03-01T01:29:19;0.32;;;0.32;;
65855;SDS011;52631;42.208;24.656;2023-03-01T01:31:44;0.50;;;0.50;;
65855;SDS011;52631;42.208;24.656;2023-03-01T01:34:14;0.98;;;0.98;;
65855;SDS011;52631;42.208;24.656;2023-03-01T01:36:41;0.63;;;0.63;;
65855;SDS011;52631;42.208;24.656;2023-03-01T01:39:07;0.40;;;0.40;;
65855;SDS011;52631;42.208;24.656;2023-03-01T01:41:33;0.65;;;0.65;;
65855;SDS011;52631;42.208;24.656;2023-03-01T01:46:46;0.73;;;0.73;;
65855;SDS011;52631;42.208;24.656;2023-03-01T01:49:34;0.40;;;0.40;;
65855;SDS011;52631;42.208;24.656;2023-03-01T01:52:09;0.30;;;0.30;;
65855;SDS011;52631;42.208;24.656;2023-03-01T01:54:43;0.70;;;0.70;;
65855;SDS011;52631;42.208;24.656;2023-03-01T01:57:14;0.60;;;0.60;;
65855;SDS011;52631;42.208;24.656;2023-03-01T01:59:45;0.32;;;0.32;;
65855;SDS011;52631;42.208;24.656;2023-03-01T02:02:14;0.30;;;0.30;;
65855;SDS011;52631;42.208;24.656;2023-03-01T02:04:39;0.63;;;0.63;;
65855;SDS011;52631;42.208;24.656;2023-03-01T02:07:08;0.73;;;0.73;;
65855;SDS011;52631;42.208;24.656;2023-03-01T02:09:39;0.30;;;0.30;;
65855;SDS011;52631;42.208;24.656;2023-03-01T02:12:07;0.47;;;0.47;;
65855;SDS011;52631;42.208;24.656;2023-03-01T02:14:32;0.30;;;0.30;;
65855;SDS011;52631;42.208;24.656;2023-03-01T02:16:58;0.65;;;0.65;;
65855;SDS011;52631;42.208;24.656;2023-03-01T02:19:30;0.40;;;0.40;;
65855;SDS011;52631;42.208;24.656;2023-03-01T02:27:40;0.30;;;0.30;;
65855;SDS011;52631;42.208;24.656;2023-03-01T02:30:25;0.40;;;0.40;;
65855;SDS011;52631;42.208;24.656;2023-03-01T02:32:52;0.30;;;0.30;;
65855;SDS011;52631;42.208;24.656;2023-03-01T02:35:18;0.55;;;0.55;;
65855;SDS011;52631;42.208;24.656;2023-03-01T02:37:44;0.60;;;0.60;;
65855;SDS011;52631;42.208;24.656;2023-03-01T02:40:13;0.30;;;0.30;;
65855;SDS011;52631;42.208;24.656;2023-03-01T02:42:55;0.38;;;0.38;;
65855;SDS011;52631;42.208;24.656;2023-03-01T02:45:22;0.68;;;0.68;;
65855;SDS011;52631;42.208;24.656;2023-03-01T02:47:48;0.20;;;0.20;;
65855;SDS011;52631;42.208;24.656;2023-03-01T02:55:23;0.90;;;0.90;;
65855;SDS011;52631;42.208;24.656;2023-03-01T02:57:49;0.30;;;0.30;;
65855;SDS011;52631;42.208;24.656;2023-03-01T03:00:19;0.30;;;0.30;;
65855;SDS011;52631;42.208;24.656;2023-03-01T03:02:48;0.30;;;0.30;;
65855;SDS011;52631;42.208;24.656;2023-03-01T03:05:16;0.40;;;0.40;;
65855;SDS011;52631;42.208;24.656;2023-03-01T03:07:43;0.60;;;0.60;;
65855;SDS011;52631;42.208;24.656;2023-03-01T03:10:12;1.50;;;1.15;;
65855;SDS011;52631;42.208;24.656;2023-03-01T03:12:39;0.30;;;0.30;;
65855;SDS011;52631;42.208;24.656;2023-03-01T03:15:06;0.30;;;0.30;;
65855;SDS011;52631;42.208;24.656;2023-03-01T03:17:36;0.40;;;0.40;;
65855;SDS011;52631;42.208;24.656;2023-03-01T03:20:03;0.30;;;0.30;;
65855;SDS011;52631;42.208;24.656;2023-03-01T03:22:30;0.30;;;0.30;;
65855;SDS011;52631;42.208;24.656;2023-03-01T03:24:56;0.55;;;0.55;;
65855;SDS011;52631;42.208;24.656;2023-03-01T03:27:21;0.45;;;0.45;;
65855;SDS011;52631;42.208;24.656;2023-03-01T03:29:47;0.40;;;0.40;;
65855;SDS011;52631;42.208;24.656;2023-03-01T03:32:12;0.30;;;0.30;;
65855;SDS011;52631;42.208;24.656;2023-03-01T03:34:37;0.77;;;0.77;;
65855;SDS011;52631;42.208;24.656;2023-03-01T03:37:03;0.50;;;0.50;;
65855;SDS011;52631;42.208;24.656;2023-03-01T03:39:28;0.40;;;0.40;;
65855;SDS011;52631;42.208;24.656;2023-03-01T03:41:59;0.50;;;0.50;;
65855;SDS011;52631;42.208;24.656;2023-03-01T03:44:25;0.30;;;0.30;;
65855;SDS011;52631;42.208;24.656;2023-03-01T03:46:50;0.32;;;0.32;;
65855;SDS011;52631;42.208;24.656;2023-03-01T03:49:16;0.40;;;0.40;;
65855;SDS011;52631;42.208;24.656;2023-03-01T03:51:41;0.30;;;0.30;;
65855;SDS011;52631;42.208;24.656;2023-03-01T03:54:07;0.70;;;0.70;;
65855;SDS011;52631;42.208;24.656;2023-03-01T03:56:32;0.38;;;0.38;;
65855;SDS011;52631;42.208;24.656;2023-03-01T03:58:58;0.30;;;0.30;;
65855;SDS011;52631;42.208;24.656;2023-03-01T04:01:23;0.40;;;0.40;;
65855;SDS011;52631;42.208;24.656;2023-03-01T04:03:49;0.40;;;0.40;;
65855;SDS011;52631;42.208;24.656;2023-03-01T04:06:19;0.55;;;0.55;;
65855;SDS011;52631;42.208;24.656;2023-03-01T04:08:44;1.58;;;0.82;;
65855;SDS011;52631;42.208;24.656;2023-03-01T04:11:10;0.95;;;0.95;;
65855;SDS011;52631;42.208;24.656;2023-03-01T04:13:52;0.60;;;0.60;;
65855;SDS011;52631;42.208;24.656;2023-03-01T04:16:21;0.40;;;0.40;;
65855;SDS011;52631;42.208;24.656;2023-03-01T04:18:47;0.35;;;0.35;;
65855;SDS011;52631;42.208;24.656;2023-03-01T04:21:12;0.30;;;0.30;;
65855;SDS011;52631;42.208;24.656;2023-03-01T04:23:38;0.40;;;0.40;;
65855;SDS011;52631;42.208;24.656;2023-03-01T04:26:05;0.30;;;0.30;;
65855;SDS011;52631;42.208;24.656;2023-03-01T04:28:35;0.73;;;0.73;;
65855;SDS011;52631;42.208;24.656;2023-03-01T04:31:06;0.98;;;0.95;;
65855;SDS011;52631;42.208;24.656;2023-03-01T04:33:59;0.40;;;0.40;;
65855;SDS011;52631;42.208;24.656;2023-03-01T04:36:25;0.30;;;0.30;;
65855;SDS011;52631;42.208;24.656;2023-03-01T04:38:52;0.45;;;0.45;;
65855;SDS011;52631;42.208;24.656;2023-03-01T04:41:19;0.40;;;0.40;;
65855;SDS011;52631;42.208;24.656;2023-03-01T04:43:45;0.50;;;0.50;;
65855;SDS011;52631;42.208;24.656;2023-03-01T04:46:12;0.40;;;0.40;;
65855;SDS011;52631;42.208;24.656;2023-03-01T04:48:39;0.30;;;0.30;;
65855;SDS011;52631;42.208;24.656;2023-03-01T04:51:05;0.40;;;0.40;;
65855;SDS011;52631;42.208;24.656;2023-03-01T04:53:31;0.30;;;0.30;;
65855;SDS011;52631;42.208;24.656;2023-03-01T04:55:57;0.38;;;0.38;;
65855;SDS011;52631;42.208;24.656;2023-03-01T04:58:24;0.30;;;0.30;;
65855;SDS011;52631;42.208;24.656;2023-03-01T05:00:50;0.32;;;0.32;;
65855;SDS011;52631;42.208;24.656;2023-03-01T05:03:16;0.40;;;0.40;;
65855;SDS011;52631;42.208;24.656;2023-03-01T05:05:43;0.40;;;0.40;;
65855;SDS011;52631;42.208;24.656;2023-03-01T05:08:09;0.30;;;0.30;;
65855;SDS011;52631;42.208;24.656;2023-03-01T05:10:42;0.35;;;0.35;;
65855;SDS011;52631;42.208;24.656;2023-03-01T05:13:08;0.57;;;0.57;;
65855;SDS011;52631;42.208;24.656;2023-03-01T05:15:33;0.32;;;0.32;;
65855;SDS011;52631;42.208;24.656;2023-03-01T05:18:01;0.32;;;0.32;;
65855;SDS011;52631;42.208;24.656;2023-03-01T05:20:30;0.40;;;0.40;;
65855;SDS011;52631;42.208;24.656;2023-03-01T05:22:56;0.68;;;0.68;;
65855;SDS011;52631;42.208;24.656;2023-03-01T05:25:23;0.75;;;0.75;;
65855;SDS011;52631;42.208;24.656;2023-03-01T05:27:49;0.85;;;0.85;;
65855;SDS011;52631;42.208;24.656;2023-03-01T05:30:15;0.47;;;0.47;;
65855;SDS011;52631;42.208;24.656;2023-03-01T05:32:46;0.40;;;0.40;;
65855;SDS011;52631;42.208;24.656;2023-03-01T05:35:14;1.40;;;1.30;;
65855;SDS011;52631;42.208;24.656;2023-03-01T05:37:44;0.30;;;0.30;;
65855;SDS011;52631;42.208;24.656;2023-03-01T05:40:13;0.30;;;0.30;;
65855;SDS011;52631;42.208;24.656;2023-03-01T05:42:44;0.85;;;0.85;;
65855;SDS011;52631;42.208;24.656;2023-03-01T05:45:11;1.05;;;0.73;;
65855;SDS011;52631;42.208;24.656;2023-03-01T05:47:38;1.10;;;1.00;;
65855;SDS011;52631;42.208;24.656;2023-03-01T05:50:08;0.30;;;0.30;;
65855;SDS011;52631;42.208;24.656;2023-03-01T05:52:45;0.40;;;0.40;;
65855;SDS011;52631;42.208;24.656;2023-03-01T05:55:31;0.38;;;0.38;;
65855;SDS011;52631;42.208;24.656;2023-03-01T05:57:58;0.40;;;0.40;;
65855;SDS011;52631;42.208;24.656;2023-03-01T06:00:24;1.33;;;1.30;;
65855;SDS011;52631;42.208;24.656;2023-03-01T06:02:50;0.30;;;0.30;;
65855;SDS011;52631;42.208;24.656;2023-03-01T06:05:30;0.40;;;0.40;;
65855;SDS011;52631;42.208;24.656;2023-03-01T06:07:58;0.30;;;0.30;;
65855;SDS011;52631;42.208;24.656;2023-03-01T06:10:24;0.77;;;0.75;;
65855;SDS011;52631;42.208;24.656;2023-03-01T06:12:50;0.75;;;0.73;;
65855;SDS011;52631;42.208;24.656;2023-03-01T06:15:15;1.40;;;1.30;;
65855;SDS011;52631;42.208;24.656;2023-03-01T06:17:42;1.88;;;1.70;;
65855;SDS011;52631;42.208;24.656;2023-03-01T06:20:13;2.45;;;1.25;;
65855;SDS011;52631;42.208;24.656;2023-03-01T06:23:00;0.68;;;0.68;;
65855;SDS011;52631;42.208;24.656;2023-03-01T06:25:26;0.60;;;0.60;;
65855;SDS011;52631;42.208;24.656;2023-03-01T06:27:53;0.40;;;0.40;;
65855;SDS011;52631;42.208;24.656;2023-03-01T06:30:19;0.60;;;0.60;;
65855;SDS011;52631;42.208;24.656;2023-03-01T06:32:45;2.03;;;1.67;;
65855;SDS011;52631;42.208;24.656;2023-03-01T06:35:12;0.55;;;0.55;;
65855;SDS011;52631;42.208;24.656;2023-03-01T06:37:39;0.75;;;0.75;;
65855;SDS011;52631;42.208;24.656;2023-03-01T06:40:05;1.60;;;1.48;;
65855;SDS011;52631;42.208;24.656;2023-03-01T06:42:36;1.17;;;1.13;;
65855;SDS011;52631;42.208;24.656;2023-03-01T06:45:05;0.40;;;0.40;;
65855;SDS011;52631;42.208;24.656;2023-03-01T06:47:32;0.60;;;0.60;;
65855;SDS011;52631;42.208;24.656;2023-03-01T06:49:58;0.40;;;0.40;;
65855;SDS011;52631;42.208;24.656;2023-03-01T06:52:24;0.52;;;0.52;;
65855;SDS011;52631;42.208;24.656;2023-03-01T06:54:49;0.40;;;0.40;;
65855;SDS011;52631;42.208;24.656;2023-03-01T06:57:15;0.57;;;0.57;;
65855;SDS011;52631;42.208;24.656;2023-03-01T06:59:40;0.77;;;0.77;;
65855;SDS011;52631;42.208;24.656;2023-03-01T07:02:06;0.60;;;0.60;;
65855;SDS011;52631;42.208;24.656;2023-03-01T07:04:31;3.30;;;2.17;;
65855;SDS011;52631;42.208;24.656;2023-03-01T07:06:56;0.40;;;0.40;;
65855;SDS011;52631;42.208;24.656;2023-03-01T07:09:22;1.35;;;1.30;;
65855;SDS011;52631;42.208;24.656;2023-03-01T07:11:48;1.92;;;1.83;;
65855;SDS011;52631;42.208;24.656;2023-03-01T07:14:14;1.85;;;0.80;;
65855;SDS011;52631;42.208;24.656;2023-03-01T07:16:40;0.40;;;0.40;;
65855;SDS011;52631;42.208;24.656;2023-03-01T07:19:05;0.88;;;0.88;;
65855;SDS011;52631;42.208;24.656;2023-03-01T07:21:31;4.15;;;2.05;;
65855;SDS011;52631;42.208;24.656;2023-03-01T07:23:58;0.93;;;0.93;;
65855;SDS011;52631;42.208;24.656;2023-03-01T07:26:23;0.68;;;0.68;;
65855;SDS011;52631;42.208;24.656;2023-03-01T07:28:49;0.95;;;0.82;;
65855;SDS011;52631;42.208;24.656;2023-03-01T07:31:14;1.20;;;1.15;;
65855;SDS011;52631;42.208;24.656;2023-03-01T07:33:40;0.30;;;0.30;;
65855;SDS011;52631;42.208;24.656;2023-03-01T07:36:06;0.40;;;0.40;;
65855;SDS011;52631;42.208;24.656;2023-03-01T07:38:32;0.88;;;0.88;;
65855;SDS011;52631;42.208;24.656;2023-03-01T07:40:59;1.13;;;1.05;;
65855;SDS011;52631;42.208;24.656;2023-03-01T07:43:26;0.40;;;0.40;;
65855;SDS011;52631;42.208;24.656;2023-03-01T07:45:54;0.63;;;0.63;;
65855;SDS011;52631;42.208;24.656;2023-03-01T07:48:19;0.68;;;0.68;;
65855;SDS011;52631;42.208;24.656;2023-03-01T07:50:45;0.38;;;0.38;;
65855;SDS011;52631;42.208;24.656;2023-03-01T07:53:10;0.50;;;0.50;;
65855;SDS011;52631;42.208;24.656;2023-03-01T07:55:36;0.50;;;0.50;;
65855;SDS011;52631;42.208;24.656;2023-03-01T07:58:01;0.47;;;0.47;;
65855;SDS011;52631;42.208;24.656;2023-03-01T08:00:27;0.30;;;0.30;;
65855;SDS011;52631;42.208;24.656;2023-03-01T08:02:53;0.50;;;0.50;;
65855;SDS011;52631;42.208;24.656;2023-03-01T08:05:18;0.30;;;0.30;;
65855;SDS011;52631;42.208;24.656;2023-03-01T08:07:44;0.73;;;0.73;;
65855;SDS011;52631;42.208;24.656;2023-03-01T08:10:10;2.35;;;2.15;;
65855;SDS011;52631;42.208;24.656;2023-03-01T08:12:36;1.23;;;1.13;;
65855;SDS011;52631;42.208;24.656;2023-03-01T08:15:02;0.45;;;0.45;;
65855;SDS011;52631;42.208;24.656;2023-03-01T08:17:28;0.45;;;0.45;;
65855;SDS011;52631;42.208;24.656;2023-03-01T08:19:53;0.40;;;0.40;;
65855;SDS011;52631;42.208;24.656;2023-03-01T08:22:19;0.47;;;0.47;;
65855;SDS011;52631;42.208;24.656;2023-03-01T08:24:44;0.40;;;0.40;;
65855;SDS011;52631;42.208;24.656;2023-03-01T08:27:10;0.40;;;0.40;;
65855;SDS011;52631;42.208;24.656;2023-03-01T08:29:37;0.30;;;0.30;;
65855;SDS011;52631;42.208;24.656;2023-03-01T08:32:02;0.30;;;0.30;;
65855;SDS011;52631;42.208;24.656;2023-03-01T08:34:28;0.30;;;0.30;;
65855;SDS011;52631;42.208;24.656;2023-03-01T08:36:53;0.57;;;0.57;;
65855;SDS011;52631;42.208;24.656;2023-03-01T08:39:19;0.40;;;0.40;;
65855;SDS011;52631;42.208;24.656;2023-03-01T08:41:45;0.60;;;0.60;;
65855;SDS011;52631;42.208;24.656;2023-03-01T08:44:12;0.40;;;0.40;;
65855;SDS011;52631;42.208;24.656;2023-03-01T08:46:39;0.35;;;0.35;;
65855;SDS011;52631;42.208;24.656;2023-03-01T08:49:06;0.45;;;0.45;;
65855;SDS011;52631;42.208;24.656;2023-03-01T08:51:33;0.30;;;0.30;;
65855;SDS011;52631;42.208;24.656;2023-03-01T08:54:02;0.30;;;0.30;;
65855;SDS011;52631;42.208;24.656;2023-03-01T08:56:28;0.30;;;0.30;;
65855;SDS011;52631;42.208;24.656;2023-03-01T08:58:54;0.40;;;0.40;;
65855;SDS011;52631;42.208;24.656;2023-03-01T09:01:19;0.60;;;0.60;;
65855;SDS011;52631;42.208;24.656;2023-03-01T09:03:45;0.30;;;0.30;;
65855;SDS011;52631;42.208;24.656;2023-03-01T09:06:11;0.30;;;0.30;;
65855;SDS011;52631;42.208;24.656;2023-03-01T09:08:38;1.65;;;0.82;;
65855;SDS011;52631;42.208;24.656;2023-03-01T09:11:05;0.50;;;0.50;;
65855;SDS011;52631;42.208;24.656;2023-03-01T09:13:32;0.30;;;0.30;;
65855;SDS011;52631;42.208;24.656;2023-03-01T09:15:58;0.38;;;0.38;;
65855;SDS011;52631;42.208;24.656;2023-03-01T09:18:24;0.90;;;0.70;;
65855;SDS011;52631;42.208;24.656;2023-03-01T09:20:49;0.60;;;0.60;;
65855;SDS011;52631;42.208;24.656;2023-03-01T09:23:15;0.40;;;0.40;;
65855;SDS011;52631;42.208;24.656;2023-03-01T09:25:40;0.32;;;0.32;;
65855;SDS011;52631;42.208;24.656;2023-03-01T09:28:06;0.30;;;0.30;;
65855;SDS011;52631;42.208;24.656;2023-03-01T09:30:31;0.30;;;0.30;;
65855;SDS011;52631;42.208;24.656;2023-03-01T09:32:57;0.40;;;0.40;;
65855;SDS011;52631;42.208;24.656;2023-03-01T09:35:22;0.30;;;0.30;;
65855;SDS011;52631;42.208;24.656;2023-03-01T09:37:48;0.30;;;0.30;;
65855;SDS011;52631;42.208;24.656;2023-03-01T09:40:19;0.40;;;0.40;;
65855;SDS011;52631;42.208;24.656;2023-03-01T09:42:52;0.30;;;0.30;;
65855;SDS011;52631;42.208;24.656;2023-03-01T09:45:33;0.60;;;0.55;;
65855;SDS011;52631;42.208;24.656;2023-03-01T09:48:00;0.40;;;0.40;;
65855;SDS011;52631;42.208;24.656;2023-03-01T09:50:26;0.50;;;0.50;;
65855;SDS011;52631;42.208;24.656;2023-03-01T09:53:02;0.60;;;0.60;;
65855;SDS011;52631;42.208;24.656;2023-03-01T10:01:27;0.85;;;0.60;;
65855;SDS011;52631;42.208;24.656;2023-03-01T10:09:34;0.60;;;0.60;;
65855;SDS011;52631;42.208;24.656;2023-03-01T10:12:02;0.47;;;0.47;;
65855;SDS011;52631;42.208;24.656;2023-03-01T10:14:35;0.40;;;0.40;;
65855;SDS011;52631;42.208;24.656;2023-03-01T10:17:14;0.40;;;0.40;;
65855;SDS011;52631;42.208;24.656;2023-03-01T10:22:37;0.30;;;0.30;;
65855;SDS011;52631;42.208;24.656;2023-03-01T10:25:03;0.30;;;0.30;;
65855;SDS011;52631;42.208;24.656;2023-03-01T10:27:34;0.30;;;0.30;;
65855;SDS011;52631;42.208;24.656;2023-03-01T10:30:16;0.30;;;0.30;;
65855;SDS011;52631;42.208;24.656;2023-03-01T10:32:44;0.35;;;0.35;;
65855;SDS011;52631;42.208;24.656;2023-03-01T10:35:27;1.38;;;1.27;;
65855;SDS011;52631;42.208;24.656;2023-03-01T10:38:07;0.30;;;0.30;;
65855;SDS011;52631;42.208;24.656;2023-03-01T10:40:34;0.30;;;0.30;;
65855;SDS011;52631;42.208;24.656;2023-03-01T10:43:02;0.40;;;0.40;;
65855;SDS011;52631;42.208;24.656;2023-03-01T10:50:44;0.52;;;0.52;;
65855;SDS011;52631;42.208;24.656;2023-03-01T10:55:45;0.43;;;0.43;;
65855;SDS011;52631;42.208;24.656;2023-03-01T11:00:50;0.38;;;0.38;;
65855;SDS011;52631;42.208;24.656;2023-03-01T11:03:31;0.40;;;0.40;;
65855;SDS011;52631;42.208;24.656;2023-03-01T11:06:05;0.40;;;0.40;;
65855;SDS011;52631;42.208;24.656;2023-03-01T11:08:39;0.40;;;0.40;;
65855;SDS011;52631;42.208;24.656;2023-03-01T11:11:24;1.10;;;1.10;;
65855;SDS011;52631;42.208;24.656;2023-03-01T11:13:57;1.48;;;1.38;;
65855;SDS011;52631;42.208;24.656;2023-03-01T11:16:44;0.60;;;0.60;;
65855;SDS011;52631;42.208;24.656;2023-03-01T11:21:36;0.50;;;0.50;;
65855;SDS011;52631;42.208;24.656;2023-03-01T11:24:05;0.63;;;0.63;;
65855;SDS011;52631;42.208;24.656;2023-03-01T11:26:36;0.30;;;0.30;;
65855;SDS011;52631;42.208;24.656;2023-03-01T11:29:05;0.30;;;0.30;;
65855;SDS011;52631;42.208;24.656;2023-03-01T11:31:36;0.50;;;0.50;;
65855;SDS011;52631;42.208;24.656;2023-03-01T11:34:05;0.30;;;0.30;;
65855;SDS011;52631;42.208;24.656;2023-03-01T11:36:53;0.40;;;0.40;;
65855;SDS011;52631;42.208;24.656;2023-03-01T11:44:41;0.75;;;0.75;;
65855;SDS011;52631;42.208;24.656;2023-03-01T11:47:12;0.40;;;0.40;;
65855;SDS011;52631;42.208;24.656;2023-03-01T11:49:48;0.65;;;0.60;;
65855;SDS011;52631;42.208;24.656;2023-03-01T12:09:01;4.93;;;2.20;;
65855;SDS011;52631;42.208;24.656;2023-03-01T12:17:31;5.22;;;2.80;;
65855;SDS011;52631;42.208;24.656;2023-03-01T12:38:49;3.17;;;1.73;;
65855;SDS011;52631;42.208;24.656;2023-03-01T12:41:39;4.63;;;2.05;;
65855;SDS011;52631;42.208;24.656;2023-03-01T12:44:11;5.05;;;2.50;;
65855;SDS011;52631;42.208;24.656;2023-03-01T12:49:30;7.35;;;4.30;;
65855;SDS011;52631;42.208;24.656;2023-03-01T12:52:02;10.00;;;6.07;;
65855;SDS011;52631;42.208;24.656;2023-03-01T12:54:35;13.65;;;8.40;;
65855;SDS011;52631;42.208;24.656;2023-03-01T12:57:16;13.88;;;9.68;;
65855;SDS011;52631;42.208;24.656;2023-03-01T13:02:44;8.35;;;5.28;;
65855;SDS011;52631;42.208;24.656;2023-03-01T13:05:23;6.43;;;3.70;;
65855;SDS011;52631;42.208;24.656;2023-03-01T13:07:55;9.13;;;5.63;;
65855;SDS011;52631;42.208;24.656;2023-03-01T13:10:50;6.93;;;4.35;;
65855;SDS011;52631;42.208;24.656;2023-03-01T13:13:21;7.75;;;4.70;;
65855;SDS011;52631;42.208;24.656;2023-03-01T13:15:48;6.53;;;4.50;;
65855;SDS011;52631;42.208;24.656;2023-03-01T13:20:56;7.57;;;5.20;;
65855;SDS011;52631;42.208;24.656;2023-03-01T13:31:03;13.18;;;7.30;;
65855;SDS011;52631;42.208;24.656;2023-03-01T13:35:58;6.63;;;3.28;;
65855;SDS011;52631;42.208;24.656;2023-03-01T13:38:37;5.40;;;3.22;;
65855;SDS011;52631;42.208;24.656;2023-03-01T13:41:17;11.43;;;6.90;;
65855;SDS011;52631;42.208;24.656;2023-03-01T13:43:56;6.50;;;3.55;;
65855;SDS011;52631;42.208;24.656;2023-03-01T13:46:23;8.23;;;4.75;;
65855;SDS011;52631;42.208;24.656;2023-03-01T13:48:53;4.90;;;3.10;;
65855;SDS011;52631;42.208;24.656;2023-03-01T13:53:50;8.80;;;5.28;;
65855;SDS011;52631;42.208;24.656;2023-03-01T13:56:18;6.10;;;3.95;;
65855;SDS011;52631;42.208;24.656;2023-03-01T13:58:48;4.50;;;2.80;;
65855;SDS011;52631;42.208;24.656;2023-03-01T14:01:30;7.22;;;4.95;;
65855;SDS011;52631;42.208;24.656;2023-03-01T14:03:59;9.18;;;4.68;;
65855;SDS011;52631;42.208;24.656;2023-03-01T14:06:27;5.53;;;3.30;;
65855;SDS011;52631;42.208;24.656;2023-03-01T14:09:28;6.07;;;3.15;;
65855;SDS011;52631;42.208;24.656;2023-03-01T14:17:02;11.20;;;7.45;;
65855;SDS011;52631;42.208;24.656;2023-03-01T14:19:34;5.97;;;3.70;;
65855;SDS011;52631;42.208;24.656;2023-03-01T14:24:58;9.98;;;6.13;;
65855;SDS011;52631;42.208;24.656;2023-03-01T14:27:26;6.25;;;3.58;;
65855;SDS011;52631;42.208;24.656;2023-03-01T14:29:54;7.38;;;4.15;;
65855;SDS011;52631;42.208;24.656;2023-03-01T14:32:28;6.40;;;3.97;;
65855;SDS011;52631;42.208;24.656;2023-03-01T14:34:59;16.88;;;13.85;;
65855;SDS011;52631;42.208;24.656;2023-03-01T14:37:26;6.50;;;4.50;;
65855;SDS011;52631;42.208;24.656;2023-03-01T14:39:53;7.90;;;6.32;;
65855;SDS011;52631;42.208;24.656;2023-03-01T14:42:21;9.23;;;6.85;;
65855;SDS011;52631;42.208;24.656;2023-03-01T14:44:48;7.53;;;5.25;;
65855;SDS011;52631;42.208;24.656;2023-03-01T14:47:20;10.00;;;5.55;;
65855;SDS011;52631;42.208;24.656;2023-03-01T14:50:00;5.80;;;3.43;;
65855;SDS011;52631;42.208;24.656;2023-03-01T14:52:33;5.90;;;3.70;;
65855;SDS011;52631;42.208;24.656;2023-03-01T14:55:02;6.80;;;3.83;;
65855;SDS011;52631;42.208;24.656;2023-03-01T14:57:32;7.53;;;4.25;;
65855;SDS011;52631;42.208;24.656;2023-03-01T14:59:58;6.07;;;3.60;;
65855;SDS011;52631;42.208;24.656;2023-03-01T15:02:29;4.25;;;2.67;;
65855;SDS011;52631;42.208;24.656;2023-03-01T15:04:57;6.03;;;4.22;;
65855;SDS011;52631;42.208;24.656;2023-03-01T15:07:34;8.57;;;4.47;;
65855;SDS011;52631;42.208;24.656;2023-03-01T15:10:05;7.25;;;4.35;;
65855;SDS011;52631;42.208;24.656;2023-03-01T15:12:36;5.33;;;3.73;;
65855;SDS011;52631;42.208;24.656;2023-03-01T15:15:19;7.25;;;3.55;;
65855;SDS011;52631;42.208;24.656;2023-03-01T15:17:56;6.15;;;3.70;;
65855;SDS011;52631;42.208;24.656;2023-03-01T15:20:25;5.40;;;3.60;;
65855;SDS011;52631;42.208;24.656;2023-03-01T15:22:53;7.30;;;4.15;;
65855;SDS011;52631;42.208;24.656;2023-03-01T15:25:19;5.85;;;3.88;;
65855;SDS011;52631;42.208;24.656;2023-03-01T15:27:47;9.65;;;5.43;;
65855;SDS011;52631;42.208;24.656;2023-03-01T15:30:19;6.55;;;3.45;;
65855;SDS011;52631;42.208;24.656;2023-03-01T15:33:15;16.38;;;6.30;;
65855;SDS011;52631;42.208;24.656;2023-03-01T15:35:44;13.20;;;5.07;;
65855;SDS011;52631;42.208;24.656;2023-03-01T15:40:58;15.95;;;7.50;;
65855;SDS011;52631;42.208;24.656;2023-03-01T15:43:42;24.70;;;9.02;;
65855;SDS011;52631;42.208;24.656;2023-03-01T15:46:20;16.00;;;7.28;;
65855;SDS011;52631;42.208;24.656;2023-03-01T15:48:50;18.08;;;8.45;;
65855;SDS011;52631;42.208;24.656;2023-03-01T15:51:18;16.88;;;7.10;;
65855;SDS011;52631;42.208;24.656;2023-03-01T15:53:48;10.40;;;5.45;;
65855;SDS011;52631;42.208;24.656;2023-03-01T15:56:15;7.68;;;4.10;;
65855;SDS011;52631;42.208;24.656;2023-03-01T15:58:40;7.57;;;3.80;;
65855;SDS011;52631;42.208;24.656;2023-03-01T16:01:13;4.55;;;2.97;;
65855;SDS011;52631;42.208;24.656;2023-03-01T16:03:39;6.40;;;3.88;;
65855;SDS011;52631;42.208;24.656;2023-03-01T16:06:05;7.88;;;5.00;;
65855;SDS011;52631;42.208;24.656;2023-03-01T16:08:31;8.23;;;5.13;;
65855;SDS011;52631;42.208;24.656;2023-03-01T16:10:58;7.82;;;4.68;;
65855;SDS011;52631;42.208;24.656;2023-03-01T16:13:23;8.05;;;4.38;;
65855;SDS011;52631;42.208;24.656;2023-03-01T16:15:50;12.27;;;6.78;;
65855;SDS011;52631;42.208;24.656;2023-03-01T16:18:16;11.02;;;6.85;;
65855;SDS011;52631;42.208;24.656;2023-03-01T16:20:41;8.50;;;4.45;;
65855;SDS011;52631;42.208;24.656;2023-03-01T16:23:08;8.50;;;4.50;;
65855;SDS011;52631;42.208;24.656;2023-03-01T16:25:35;6.15;;;3.38;;
65855;SDS011;52631;42.208;24.656;2023-03-01T16:28:01;9.57;;;5.05;;
65855;SDS011;52631;42.208;24.656;2023-03-01T16:30:29;5.93;;;3.00;;
65855;SDS011;52631;42.208;24.656;2023-03-01T16:32:55;4.90;;;2.50;;
65855;SDS011;52631;42.208;24.656;2023-03-01T16:35:21;5.05;;;3.03;;
65855;SDS011;52631;42.208;24.656;2023-03-01T16:37:47;6.80;;;3.03;;
65855;SDS011;52631;42.208;24.656;2023-03-01T16:40:23;5.93;;;3.28;;
65855;SDS011;52631;42.208;24.656;2023-03-01T16:42:50;5.90;;;3.78;;
65855;SDS011;52631;42.208;24.656;2023-03-01T16:45:16;7.05;;;3.67;;